Piedmont, KS (67122)

9:37 AM CST on February 13, 2016 (GMT -0600)
Logan Township | | Change Station
CLOSE
Current Station
Personal Weather Station
Location: Leon, KS
Elevation: 1355 ft
Nearby Weather Stations

Elev 1355 ft 37.62 °N, 96.75 °W | Updated 6 minutes ago

Clear
Clear
25.9 °F
Feels Like 16 °F
N
10.4
Wind Variable Wind from East

Today
High -- | Low -- °F
--% Chance of Precip.
Yesterday
High -- | Low -- °F
Precip. -- in
Pressure 30.52 in
Visibility 10.0 miles
Clouds Clear
Windchill 16 °F
Dew Point 8 °F
Humidity 46%
Rainfall 0.00 in
Snow Depth Not available.
7:17 AM 6:02 PM
Waxing Crescent, 31% visible
METAR KAAO 131454Z AUTO 09013KT 10SM CLR M05/M14 A3047 RMK AO2 SLP335 T10501139 58004
Pressure 30.52 in
Visibility 10.0 miles
Clouds Clear
Windchill 16 °F
Dew Point 8 °F
Humidity 46%
Rainfall 0.00 in
Snow Depth Not available.
7:17 AM 6:02 PM
Waxing Crescent, 31% visible
METAR KAAO 131454Z AUTO 09013KT 10SM CLR M05/M14 A3047 RMK AO2 SLP335 T10501139 58004

10-Day Weather Forecast

Almanac

Astronomy

Feb. 13, 2016 Rise Set
Actual Time
Civil Twilight
Nautical Twilight
Astronomical Twilight
Moon
Length of Visible Light
Length of Day
Tomorrow will be .
, % of the Moon is Illuminated

Today's Extremes

State Highs State Lows

Community

WunderPhotos

Upload Photos

1,892,585 photos uploaded!

WunderBlog® & News

Nearby

Air Quality

  Air Quality AQ Index Pollutant
Not available.

Snow Depth

Station Depth Elevation

Earthquake Activity

City Distance Mag. Time & Date
Minimum magnitude displayed is 2.5.

Coastal Water Temperatures

Place Temperature

Stations

Nearby Weather Stations

Station Location Temp. Windchill Dew Point Humidity Wind Precip. Elev Updated Type
                   

Watches & Warnings

There are currently no watches in effect.